Time;durP1;ratioP1;P1;durP2;ratioP2;P2;SDS_P1;SDS_P2;PMS_P1;PMS_P2;Temp;Humidity;BMP_temperature;BMP_pressure;BME280_temperature;BME280_humidity;BME280_pressure;Samples;Min_cycle;Max_cycle;Signal;HPM_P1;HPM_P2
2023/03/01 00:01:40;;;;;;;74.67;35.30;;;;;;;;;;5094768;28;20206;-46
2023/03/01 00:04:07;;;;;;;74.40;33.73;;;;;;;;;;5094560;28;20214;-46
2023/03/01 00:06:35;;;;;;;68.40;31.97;;;;;;;;;;5094251;28;20260;-47
2023/03/01 00:09:03;;;;;;;68.97;31.50;;;;;;;;;;5094490;28;20670;-48
2023/03/01 00:11:58;;;;;;;63.37;31.30;;;;;;;;;;5094720;28;20210;-47
2023/03/01 00:14:25;;;;;;;60.90;30.87;;;;;;;;;;5095444;28;20190;-46
2023/03/01 00:16:52;;;;;;;82.13;37.93;;;;;;;;;;5097466;28;20280;-46
2023/03/01 00:19:21;;;;;;;77.03;35.83;;;;;;;;;;5098495;28;20589;-47
2023/03/01 00:21:48;;;;;;;69.27;33.37;;;;;;;;;;5098423;28;20202;-47
2023/03/01 00:24:16;;;;;;;68.23;31.33;;;;;;;;;;5098415;28;20227;-47
2023/03/01 00:26:43;;;;;;;64.93;30.57;;;;;;;;;;5098230;28;20210;-47
2023/03/01 00:29:11;;;;;;;66.10;31.70;;;;;;;;;;5098107;28;20636;-48
2023/03/01 00:31:38;;;;;;;58.83;30.47;;;;;;;;;;5098227;28;20263;-48
2023/03/01 00:34:05;;;;;;;64.40;31.57;;;;;;;;;;5098330;28;20210;-50
2023/03/01 00:36:34;;;;;;;67.30;31.93;;;;;;;;;;5098180;28;20272;-47
2023/03/01 00:39:04;;;;;;;71.20;32.80;;;;;;;;;;5098134;28;20238;-46
2023/03/01 00:41:31;;;;;;;64.40;32.50;;;;;;;;;;5097825;28;20625;-47
2023/03/01 00:43:58;;;;;;;70.43;32.40;;;;;;;;;;5097652;28;20251;-48
2023/03/01 00:46:26;;;;;;;70.37;32.30;;;;;;;;;;5098531;28;20268;-47
2023/03/01 00:48:54;;;;;;;76.77;36.37;;;;;;;;;;5096835;28;20637;-46
2023/03/01 00:51:25;;;;;;;71.67;34.73;;;;;;;;;;5097126;28;20203;-52
2023/03/01 00:53:54;;;;;;;71.37;31.53;;;;;;;;;;5098384;28;20190;-47
2023/03/01 00:56:21;;;;;;;64.40;29.67;;;;;;;;;;5097962;28;20264;-47
2023/03/01 00:58:48;;;;;;;64.13;31.13;;;;;;;;;;5097314;28;20198;-52
2023/03/01 01:01:24;;;;;;;63.57;29.63;;;;;;;;;;5097433;28;20230;-50
2023/03/01 01:03:58;;;;;;;61.27;29.07;;;;;;;;;;5097694;28;20255;-54
2023/03/01 01:06:27;;;;;;;64.57;29.53;;;;;;;;;;5096531;28;20656;-47
2023/03/01 01:08:56;;;;;;;57.43;27.57;;;;;;;;;;5096822;28;20230;-48
2023/03/01 01:11:25;;;;;;;65.57;30.43;;;;;;;;;;5097389;28;20218;-46
2023/03/01 01:13:53;;;;;;;65.60;31.47;;;;;;;;;;5097769;28;20211;-46
2023/03/01 01:16:23;;;;;;;70.17;31.83;;;;;;;;;;5097356;28;20230;-47
2023/03/01 01:18:50;;;;;;;72.90;34.33;;;;;;;;;;5097364;28;20206;-48
2023/03/01 01:21:19;;;;;;;68.63;33.07;;;;;;;;;;5097026;28;20259;-48
2023/03/01 01:23:47;;;;;;;65.17;31.13;;;;;;;;;;5097361;28;20295;-47
2023/03/01 01:26:23;;;;;;;58.17;30.10;;;;;;;;;;5097244;28;20571;-46
2023/03/01 01:28:51;;;;;;;67.03;31.60;;;;;;;;;;5096506;28;20198;-47
2023/03/01 01:31:18;;;;;;;70.83;32.43;;;;;;;;;;5095922;28;20629;-47
2023/03/01 01:33:46;;;;;;;65.73;31.67;;;;;;;;;;5097253;28;20202;-47
2023/03/01 01:36:13;;;;;;;63.17;31.43;;;;;;;;;;5096181;28;20256;-46
2023/03/01 01:38:42;;;;;;;62.10;29.43;;;;;;;;;;5096670;28;20195;-47
2023/03/01 01:41:13;;;;;;;67.47;31.87;;;;;;;;;;5097022;28;20213;-47
2023/03/01 01:43:48;;;;;;;69.63;33.37;;;;;;;;;;5096824;28;20594;-48
2023/03/01 01:46:29;;;;;;;68.10;32.20;;;;;;;;;;5096242;28;20198;-46
2023/03/01 01:49:07;;;;;;;74.97;38.13;;;;;;;;;;5079483;28;20206;-46
2023/03/01 01:51:40;;;;;;;63.87;32.93;;;;;;;;;;5097035;28;20195;-47
2023/03/01 01:54:38;;;;;;;60.10;29.00;;;;;;;;;;5096459;28;20194;-46
2023/03/01 01:57:09;;;;;;;61.40;30.57;;;;;;;;;;5096165;28;20249;-47
2023/03/01 01:59:37;;;;;;;61.83;29.30;;;;;;;;;;5096012;28;20203;-47
2023/03/01 02:02:04;;;;;;;74.43;31.07;;;;;;;;;;5096751;28;20252;-48
2023/03/01 02:04:32;;;;;;;62.33;30.27;;;;;;;;;;5095511;28;20227;-47
2023/03/01 02:07:07;;;;;;;64.20;30.70;;;;;;;;;;5078962;28;20198;-46
2023/03/01 02:09:35;;;;;;;54.73;26.33;;;;;;;;;;5078739;28;20640;-47
2023/03/01 02:12:04;;;;;;;61.10;30.20;;;;;;;;;;5078762;28;20207;-47
2023/03/01 02:14:31;;;;;;;59.07;27.97;;;;;;;;;;5095471;28;20206;-47
2023/03/01 02:16:58;;;;;;;56.40;27.50;;;;;;;;;;5095107;28;20668;-46
2023/03/01 02:19:54;;;;;;;67.63;30.70;;;;;;;;;;5095375;28;20263;-47
2023/03/01 02:22:39;;;;;;;56.13;28.67;;;;;;;;;;5095297;28;20198;-47
2023/03/01 02:25:19;;;;;;;57.70;27.57;;;;;;;;;;5096211;28;20206;-47
2023/03/01 02:27:53;;;;;;;65.93;30.57;;;;;;;;;;5095311;28;20191;-47
2023/03/01 02:30:21;;;;;;;65.10;28.03;;;;;;;;;;5096164;28;20227;-48
2023/03/01 02:32:49;;;;;;;58.73;28.87;;;;;;;;;;5095086;28;20237;-47
2023/03/01 02:35:17;;;;;;;57.43;27.73;;;;;;;;;;5094831;28;20194;-47
2023/03/01 02:37:45;;;;;;;68.33;29.27;;;;;;;;;;5094978;28;20199;-48
2023/03/01 02:40:16;;;;;;;77.87;33.13;;;;;;;;;;5094517;28;20648;-46
2023/03/01 02:42:52;;;;;;;59.60;30.00;;;;;;;;;;5078321;28;20199;-47
2023/03/01 02:45:21;;;;;;;62.03;27.73;;;;;;;;;;5095299;28;20191;-47
2023/03/01 02:47:47;;;;;;;62.77;27.03;;;;;;;;;;5094835;28;20217;-48
2023/03/01 02:50:30;;;;;;;76.87;33.33;;;;;;;;;;5095601;28;20221;-47
2023/03/01 02:53:02;;;;;;;66.83;37.87;;;;;;;;;;5094978;28;20210;-46
2023/03/01 02:55:29;;;;;;;56.67;27.90;;;;;;;;;;5094547;28;20268;-48
2023/03/01 02:57:56;;;;;;;55.30;27.13;;;;;;;;;;5094743;28;20209;-48
2023/03/01 03:00:32;;;;;;;60.00;26.87;;;;;;;;;;5078022;28;20199;-49
2023/03/01 03:03:00;;;;;;;57.87;26.83;;;;;;;;;;5094809;28;20234;-46
2023/03/01 03:05:30;;;;;;;58.10;28.47;;;;;;;;;;5094642;28;20210;-47
2023/03/01 03:07:59;;;;;;;54.80;25.93;;;;;;;;;;5094330;28;20641;-47
2023/03/01 03:10:32;;;;;;;58.33;27.70;;;;;;;;;;5094487;28;20198;-47
2023/03/01 03:13:05;;;;;;;66.17;29.50;;;;;;;;;;5095424;28;20275;-47
2023/03/01 03:15:35;;;;;;;57.87;29.07;;;;;;;;;;5095175;28;20203;-46
2023/03/01 03:18:05;;;;;;;60.30;28.30;;;;;;;;;;5094218;28;20625;-47
2023/03/01 03:20:34;;;;;;;66.90;29.03;;;;;;;;;;5095153;28;20532;-47
2023/03/01 03:23:01;;;;;;;65.13;33.70;;;;;;;;;;5095066;28;20208;-47
2023/03/01 03:25:29;;;;;;;59.13;28.63;;;;;;;;;;5095096;28;20202;-47
2023/03/01 03:27:57;;;;;;;55.70;27.27;;;;;;;;;;5094989;28;20217;-47
2023/03/01 03:30:28;;;;;;;56.33;25.90;;;;;;;;;;5094872;28;20272;-48
2023/03/01 03:32:57;;;;;;;63.27;27.30;;;;;;;;;;5095560;28;20583;-47
2023/03/01 03:35:32;;;;;;;57.97;27.43;;;;;;;;;;5095063;28;20202;-46
2023/03/01 03:38:03;;;;;;;56.37;27.13;;;;;;;;;;5094761;28;20209;-46
2023/03/01 03:40:40;;;;;;;59.20;27.30;;;;;;;;;;5094747;28;20256;-46
2023/03/01 03:43:11;;;;;;;54.37;27.20;;;;;;;;;;5095467;28;20241;-46
2023/03/01 03:45:39;;;;;;;55.60;27.87;;;;;;;;;;5095004;28;20202;-46
2023/03/01 03:48:09;;;;;;;59.67;28.37;;;;;;;;;;5095067;28;20577;-47
2023/03/01 03:50:38;;;;;;;64.23;29.30;;;;;;;;;;5095723;28;20203;-47
2023/03/01 03:53:08;;;;;;;82.10;39.50;;;;;;;;;;5099308;28;20267;-47
2023/03/01 03:55:38;;;;;;;73.67;39.00;;;;;;;;;;5098778;28;20190;-48
2023/03/01 03:58:08;;;;;;;63.77;29.93;;;;;;;;;;5099285;28;20199;-47
2023/03/01 04:00:41;;;;;;;56.93;27.67;;;;;;;;;;5098812;28;20194;-46
2023/03/01 04:03:08;;;;;;;62.07;28.63;;;;;;;;;;5098713;28;20255;-47
2023/03/01 04:05:36;;;;;;;64.53;28.50;;;;;;;;;;5099001;28;20213;-46
2023/03/01 04:08:06;;;;;;;57.87;26.63;;;;;;;;;;5097608;28;20199;-48
2023/03/01 04:10:37;;;;;;;59.20;27.67;;;;;;;;;;5099002;28;20214;-46
2023/03/01 04:13:05;;;;;;;58.50;27.40;;;;;;;;;;5098559;28;20256;-46
2023/03/01 04:15:34;;;;;;;59.73;27.80;;;;;;;;;;5098455;28;20214;-47
2023/03/01 04:18:01;;;;;;;55.40;26.63;;;;;;;;;;5098554;28;20195;-47
2023/03/01 04:20:30;;;;;;;49.83;26.43;;;;;;;;;;5098577;28;20210;-47
2023/03/01 04:23:12;;;;;;;53.90;25.77;;;;;;;;;;5099387;28;20203;-46
2023/03/01 04:25:41;;;;;;;58.20;28.73;;;;;;;;;;5098721;28;20199;-47
2023/03/01 04:28:09;;;;;;;60.23;29.93;;;;;;;;;;5098060;28;20297;-48
2023/03/01 04:30:38;;;;;;;61.53;27.87;;;;;;;;;;5094209;28;20204;-49
2023/03/01 04:33:06;;;;;;;61.73;28.50;;;;;;;;;;5090738;28;20195;-47
2023/03/01 04:35:34;;;;;;;57.60;27.67;;;;;;;;;;5093853;28;20199;-50
2023/03/01 04:38:02;;;;;;;56.33;28.13;;;;;;;;;;5098197;28;20264;-47
2023/03/01 04:40:30;;;;;;;67.00;29.13;;;;;;;;;;5098046;28;20271;-49
2023/03/01 04:42:56;;;;;;;58.67;28.53;;;;;;;;;;5097636;28;20633;-47
2023/03/01 04:45:24;;;;;;;61.93;28.63;;;;;;;;;;5097699;28;20230;-47
2023/03/01 04:47:54;;;;;;;68.57;31.67;;;;;;;;;;5098278;28;20198;-47
2023/03/01 04:50:23;;;;;;;56.47;27.07;;;;;;;;;;5097595;28;20655;-53
2023/03/01 04:52:50;;;;;;;61.27;27.30;;;;;;;;;;5096162;28;20298;-48
2023/03/01 04:55:18;;;;;;;91.03;35.80;;;;;;;;;;5097246;28;20660;-48
2023/03/01 04:57:45;;;;;;;60.50;31.20;;;;;;;;;;5097515;28;20209;-51
2023/03/01 05:00:20;;;;;;;58.93;26.83;;;;;;;;;;5097653;28;20210;-49
2023/03/01 05:02:52;;;;;;;52.20;26.17;;;;;;;;;;5074438;28;20237;-47
2023/03/01 05:05:25;;;;;;;57.47;27.10;;;;;;;;;;5076258;28;20235;-47
2023/03/01 05:07:54;;;;;;;56.50;26.33;;;;;;;;;;5079185;28;20226;-48
2023/03/01 05:10:22;;;;;;;59.07;27.80;;;;;;;;;;5085264;28;20250;-51
2023/03/01 05:12:49;;;;;;;59.53;27.20;;;;;;;;;;5076426;28;20242;-55
2023/03/01 05:15:16;;;;;;;56.60;28.47;;;;;;;;;;5076239;28;20243;-51
2023/03/01 05:17:43;;;;;;;53.30;27.20;;;;;;;;;;5080171;28;20231;-48
2023/03/01 05:20:10;;;;;;;57.13;27.40;;;;;;;;;;5082549;28;20238;-48
2023/03/01 05:22:38;;;;;;;72.37;29.77;;;;;;;;;;5076247;28;20512;-48
2023/03/01 05:25:07;;;;;;;62.07;30.30;;;;;;;;;;5075805;28;20720;-49
2023/03/01 05:27:34;;;;;;;54.63;26.77;;;;;;;;;;5075960;28;20231;-49
2023/03/01 05:30:13;;;;;;;54.33;26.40;;;;;;;;;;5076187;28;20374;-48
2023/03/01 05:32:48;;;;;;;62.13;27.27;;;;;;;;;;5080407;28;20292;-49
2023/03/01 05:35:17;;;;;;;61.20;28.23;;;;;;;;;;5096298;28;20299;-46
2023/03/01 05:37:46;;;;;;;50.70;23.60;;;;;;;;;;5096153;28;20222;-46
2023/03/01 05:40:16;;;;;;;58.13;28.20;;;;;;;;;;5096057;28;20679;-47
2023/03/01 05:42:43;;;;;;;56.20;28.33;;;;;;;;;;5095412;28;20685;-46
2023/03/01 05:45:12;;;;;;;55.83;23.93;;;;;;;;;;5095448;28;20711;-47
2023/03/01 05:47:43;;;;;;;58.53;26.57;;;;;;;;;;5095511;28;20234;-47
2023/03/01 05:50:18;;;;;;;52.73;26.03;;;;;;;;;;5095221;28;20583;-47
2023/03/01 05:52:48;;;;;;;57.23;24.20;;;;;;;;;;5094616;28;20229;-47
2023/03/01 05:55:17;;;;;;;44.63;23.30;;;;;;;;;;5093927;28;20226;-48
2023/03/01 05:57:44;;;;;;;47.67;22.23;;;;;;;;;;5093785;28;20899;-46
2023/03/01 06:00:13;;;;;;;57.90;27.20;;;;;;;;;;5093998;28;20231;-48
2023/03/01 06:02:41;;;;;;;57.27;27.47;;;;;;;;;;5093914;28;20318;-46
2023/03/01 06:05:09;;;;;;;66.77;29.10;;;;;;;;;;5093787;28;20249;-48
2023/03/01 06:07:37;;;;;;;59.87;27.97;;;;;;;;;;5094781;28;20326;-46
2023/03/01 06:10:06;;;;;;;64.23;29.27;;;;;;;;;;5095307;28;20222;-49
2023/03/01 06:12:37;;;;;;;58.87;25.70;;;;;;;;;;5095692;28;20223;-47
2023/03/01 06:15:06;;;;;;;52.87;26.40;;;;;;;;;;5095320;28;20233;-48
2023/03/01 06:17:37;;;;;;;61.23;28.23;;;;;;;;;;5087015;28;20255;-47
2023/03/01 06:20:07;;;;;;;71.23;32.13;;;;;;;;;;5093956;28;20225;-48
2023/03/01 06:22:34;;;;;;;68.30;29.90;;;;;;;;;;5096310;28;20294;-47
2023/03/01 06:25:02;;;;;;;71.80;34.80;;;;;;;;;;5094981;28;20227;-48
2023/03/01 06:27:29;;;;;;;57.43;28.33;;;;;;;;;;5094861;28;20206;-47
2023/03/01 06:29:56;;;;;;;61.33;28.63;;;;;;;;;;5095691;28;20218;-46
2023/03/01 06:32:23;;;;;;;62.70;29.30;;;;;;;;;;5095539;28;20729;-47
2023/03/01 06:34:51;;;;;;;72.03;31.23;;;;;;;;;;5095900;28;20220;-48
2023/03/01 06:37:18;;;;;;;66.43;31.43;;;;;;;;;;5095878;28;20293;-47
2023/03/01 06:39:45;;;;;;;60.57;28.27;;;;;;;;;;5095813;28;20267;-46
2023/03/01 06:42:12;;;;;;;78.40;33.17;;;;;;;;;;5095806;28;20210;-48
2023/03/01 06:44:39;;;;;;;64.00;30.63;;;;;;;;;;5095648;28;20292;-48
2023/03/01 06:47:06;;;;;;;59.87;29.73;;;;;;;;;;5096072;28;20198;-47
2023/03/01 06:49:33;;;;;;;59.40;27.17;;;;;;;;;;5095456;28;20206;-48
2023/03/01 06:52:00;;;;;;;68.73;29.80;;;;;;;;;;5095574;28;20233;-46
2023/03/01 06:54:28;;;;;;;58.10;29.30;;;;;;;;;;5095638;28;20209;-47
2023/03/01 06:56:55;;;;;;;71.20;33.90;;;;;;;;;;5095586;28;20213;-46
2023/03/01 06:59:22;;;;;;;62.63;31.57;;;;;;;;;;5095510;28;20217;-47
2023/03/01 07:01:49;;;;;;;67.63;29.53;;;;;;;;;;5095494;28;20213;-47
2023/03/01 07:04:16;;;;;;;77.47;35.00;;;;;;;;;;5095277;28;20280;-49
2023/03/01 07:06:43;;;;;;;62.53;28.67;;;;;;;;;;5095303;28;20289;-47
2023/03/01 07:09:11;;;;;;;74.33;33.47;;;;;;;;;;5095800;28;20256;-47
2023/03/01 07:11:38;;;;;;;69.20;35.00;;;;;;;;;;5095406;28;20267;-47
2023/03/01 07:14:06;;;;;;;66.73;31.13;;;;;;;;;;5095537;28;20593;-46
2023/03/01 07:16:33;;;;;;;68.90;34.30;;;;;;;;;;5095370;28;20551;-47
2023/03/01 07:19:02;;;;;;;65.00;32.63;;;;;;;;;;5094958;28;20210;-47
2023/03/01 07:21:28;;;;;;;68.67;32.50;;;;;;;;;;5094921;28;20202;-46
2023/03/01 07:23:56;;;;;;;70.73;33.93;;;;;;;;;;5095056;28;20210;-48
2023/03/01 07:26:23;;;;;;;62.30;31.23;;;;;;;;;;5094447;28;20270;-46
2023/03/01 07:28:52;;;;;;;62.00;28.50;;;;;;;;;;5095070;28;20198;-48
2023/03/01 07:31:19;;;;;;;57.17;28.90;;;;;;;;;;5095277;28;20206;-47
2023/03/01 07:33:46;;;;;;;63.43;30.83;;;;;;;;;;5094954;28;20210;-47
2023/03/01 07:36:13;;;;;;;62.23;28.07;;;;;;;;;;5094172;28;20230;-47
2023/03/01 07:38:40;;;;;;;71.47;32.10;;;;;;;;;;5095171;28;20271;-48
2023/03/01 07:41:08;;;;;;;62.23;32.13;;;;;;;;;;5094851;28;20202;-47
2023/03/01 07:43:35;;;;;;;63.40;32.60;;;;;;;;;;5094971;28;20207;-46
2023/03/01 07:46:03;;;;;;;64.57;29.60;;;;;;;;;;5094977;28;20275;-47
2023/03/01 07:48:31;;;;;;;57.17;30.77;;;;;;;;;;5094859;28;20218;-47
2023/03/01 07:51:03;;;;;;;61.10;28.80;;;;;;;;;;5095116;28;20264;-48
2023/03/01 07:53:31;;;;;;;64.10;31.50;;;;;;;;;;5095025;28;20539;-47
2023/03/01 07:56:03;;;;;;;65.33;30.43;;;;;;;;;;5094875;28;20234;-46
2023/03/01 07:58:31;;;;;;;63.43;29.27;;;;;;;;;;5094889;28;20213;-47
2023/03/01 08:01:04;;;;;;;60.37;29.90;;;;;;;;;;5094501;28;20199;-49
2023/03/01 08:03:32;;;;;;;55.23;29.80;;;;;;;;;;5095344;28;20224;-47
2023/03/01 08:06:00;;;;;;;60.40;29.87;;;;;;;;;;5094640;28;20226;-46
2023/03/01 08:08:27;;;;;;;58.97;30.47;;;;;;;;;;5094663;28;20213;-47
2023/03/01 08:10:58;;;;;;;60.23;29.40;;;;;;;;;;5094689;28;20645;-47
2023/03/01 08:13:26;;;;;;;62.50;29.10;;;;;;;;;;5095098;28;20272;-47
2023/03/01 08:15:53;;;;;;;60.10;30.17;;;;;;;;;;5094717;28;20245;-48
2023/03/01 08:18:21;;;;;;;61.57;30.30;;;;;;;;;;5093746;28;20214;-48
2023/03/01 08:20:48;;;;;;;61.27;30.00;;;;;;;;;;5094646;28;20537;-49
2023/03/01 08:23:15;;;;;;;56.10;28.37;;;;;;;;;;5094611;28;20300;-46
2023/03/01 08:25:42;;;;;;;60.37;29.87;;;;;;;;;;5094444;28;20218;-47
2023/03/01 08:28:09;;;;;;;63.77;31.03;;;;;;;;;;5094456;28;20404;-47
2023/03/01 08:30:36;;;;;;;61.40;31.67;;;;;;;;;;5094548;28;20203;-46
2023/03/01 08:33:04;;;;;;;62.00;28.90;;;;;;;;;;5095029;28;20626;-46
2023/03/01 08:35:31;;;;;;;63.20;31.13;;;;;;;;;;5094238;28;20206;-48
2023/03/01 08:37:58;;;;;;;65.03;30.83;;;;;;;;;;5097167;28;20210;-47
2023/03/01 08:40:25;;;;;;;65.13;31.07;;;;;;;;;;5098090;28;20203;-47
2023/03/01 08:42:52;;;;;;;64.43;31.73;;;;;;;;;;5098115;28;20553;-47
2023/03/01 08:45:19;;;;;;;62.30;30.43;;;;;;;;;;5098008;28;20257;-47
2023/03/01 08:47:46;;;;;;;67.13;32.10;;;;;;;;;;5097981;28;20256;-46
2023/03/01 08:50:14;;;;;;;64.83;30.40;;;;;;;;;;5097807;28;20271;-47
2023/03/01 08:52:41;;;;;;;58.57;27.10;;;;;;;;;;5097935;28;20542;-48
2023/03/01 08:55:08;;;;;;;69.30;31.57;;;;;;;;;;5097613;28;20614;-47
2023/03/01 08:57:36;;;;;;;69.67;33.33;;;;;;;;;;5097814;28;20211;-46
2023/03/01 09:00:07;;;;;;;70.03;29.97;;;;;;;;;;5097824;28;20202;-48
2023/03/01 09:02:35;;;;;;;62.47;31.20;;;;;;;;;;5097572;28;20256;-48
2023/03/01 09:05:02;;;;;;;64.60;32.53;;;;;;;;;;5097755;28;20660;-47
2023/03/01 09:07:29;;;;;;;61.00;30.50;;;;;;;;;;5097316;28;20637;-47
2023/03/01 09:09:56;;;;;;;71.13;33.73;;;;;;;;;;5097549;28;20202;-47
2023/03/01 09:12:24;;;;;;;58.73;30.17;;;;;;;;;;5097525;28;20222;-47
2023/03/01 09:14:51;;;;;;;80.93;35.67;;;;;;;;;;5097255;28;20574;-46
2023/03/01 09:17:21;;;;;;;74.43;33.00;;;;;;;;;;5097094;28;20697;-47
2023/03/01 09:19:49;;;;;;;61.33;30.17;;;;;;;;;;5097268;28;20202;-49
2023/03/01 09:22:16;;;;;;;72.70;31.60;;;;;;;;;;5097366;28;20209;-51
2023/03/01 09:24:43;;;;;;;62.73;30.60;;;;;;;;;;5097290;28;20538;-52
2023/03/01 09:27:12;;;;;;;63.30;31.43;;;;;;;;;;5097290;28;20263;-51
2023/03/01 09:29:39;;;;;;;61.93;30.47;;;;;;;;;;5097425;28;20211;-46
2023/03/01 09:32:08;;;;;;;64.00;30.77;;;;;;;;;;5097370;28;20218;-46
2023/03/01 09:35:00;;;;;;;61.33;29.43;;;;;;;;;;5096790;28;20203;-47
2023/03/01 09:37:22;;;;;;;70.50;30.90;;;;;;;;;;5097052;28;20645;-47
2023/03/01 09:39:49;;;;;;;65.43;30.60;;;;;;;;;;5096993;28;20209;-47
2023/03/01 09:42:17;;;;;;;59.13;29.37;;;;;;;;;;5096985;28;20221;-47
2023/03/01 09:44:52;;;;;;;64.37;30.77;;;;;;;;;;5096625;28;20259;-47
2023/03/01 09:47:28;;;;;;;60.27;30.43;;;;;;;;;;5096763;28;20206;-47
2023/03/01 09:50:16;;;;;;;68.53;31.53;;;;;;;;;;5095214;28;20210;-47
2023/03/01 09:53:03;;;;;;;60.33;28.77;;;;;;;;;;5096811;28;20203;-46
2023/03/01 09:55:38;;;;;;;57.83;28.60;;;;;;;;;;5096415;28;20195;-46
2023/03/01 09:58:24;;;;;;;53.87;27.93;;;;;;;;;;5096446;28;20190;-48
2023/03/01 10:00:51;;;;;;;53.77;27.87;;;;;;;;;;5096604;28;20248;-47
2023/03/01 10:03:28;;;;;;;51.60;25.90;;;;;;;;;;5095681;28;20228;-47
2023/03/01 10:06:04;;;;;;;55.83;26.93;;;;;;;;;;5096038;28;20225;-47
2023/03/01 10:08:55;;;;;;;61.93;27.73;;;;;;;;;;5096257;28;20733;-48
2023/03/01 10:11:26;;;;;;;56.97;27.17;;;;;;;;;;5096567;28;20206;-47
2023/03/01 10:14:11;;;;;;;52.47;26.70;;;;;;;;;;5078572;28;20510;-48
2023/03/01 10:16:48;;;;;;;52.13;23.77;;;;;;;;;;5096434;28;20760;-47
2023/03/01 10:19:30;;;;;;;52.90;25.50;;;;;;;;;;5096250;28;20210;-47
2023/03/01 10:22:04;;;;;;;55.13;26.83;;;;;;;;;;5096530;28;20191;-46
2023/03/01 10:24:34;;;;;;;55.30;27.53;;;;;;;;;;5095374;28;20218;-46
2023/03/01 10:27:05;;;;;;;49.10;25.73;;;;;;;;;;5096527;28;20237;-47
2023/03/01 10:30:16;;;;;;;50.33;26.60;;;;;;;;;;5095177;28;20206;-47
2023/03/01 10:32:48;;;;;;;51.23;27.47;;;;;;;;;;5053849;28;20215;-47
2023/03/01 10:35:25;;;;;;;56.43;27.50;;;;;;;;;;5053831;28;20204;-46
2023/03/01 10:38:06;;;;;;;50.20;26.77;;;;;;;;;;5054117;28;20215;-46
2023/03/01 10:40:41;;;;;;;58.90;30.03;;;;;;;;;;5054312;28;20208;-47
2023/03/01 10:43:11;;;;;;;64.80;31.20;;;;;;;;;;5037448;28;20183;-49
2023/03/01 10:45:39;;;;;;;57.10;27.70;;;;;;;;;;5053871;28;20228;-46
2023/03/01 10:48:32;;;;;;;56.53;29.77;;;;;;;;;;5053737;28;20676;-47
2023/03/01 10:50:59;;;;;;;50.47;23.63;;;;;;;;;;5051440;28;20215;-47
2023/03/01 10:53:28;;;;;;;52.13;26.10;;;;;;;;;;5053679;28;20207;-47
2023/03/01 10:56:01;;;;;;;52.73;25.60;;;;;;;;;;5053444;28;20208;-47
2023/03/01 10:58:29;;;;;;;50.23;26.57;;;;;;;;;;5037326;28;20215;-48
2023/03/01 11:01:02;;;;;;;63.97;30.97;;;;;;;;;;5052725;28;20557;-47
2023/03/01 11:03:34;;;;;;;54.30;27.57;;;;;;;;;;5053651;28;20200;-48
2023/03/01 11:06:05;;;;;;;51.70;27.27;;;;;;;;;;5064490;28;20676;-50
2023/03/01 11:08:38;;;;;;;48.03;26.30;;;;;;;;;;5095523;28;20195;-50
2023/03/01 11:11:06;;;;;;;54.70;26.47;;;;;;;;;;5095096;28;20534;-47
2023/03/01 11:13:34;;;;;;;50.13;26.30;;;;;;;;;;5095337;28;20741;-47
2023/03/01 11:16:10;;;;;;;45.70;23.60;;;;;;;;;;5095315;28;20243;-47
2023/03/01 11:18:37;;;;;;;43.87;24.07;;;;;;;;;;5094276;28;20202;-47
2023/03/01 11:21:15;;;;;;;42.20;22.83;;;;;;;;;;5095242;28;20210;-47
2023/03/01 11:23:45;;;;;;;43.23;24.60;;;;;;;;;;5095220;28;20286;-46
2023/03/01 11:26:13;;;;;;;47.90;24.23;;;;;;;;;;5095210;28;20248;-47
2023/03/01 11:28:42;;;;;;;44.67;24.27;;;;;;;;;;5094235;28;20293;-48
2023/03/01 11:31:14;;;;;;;47.47;23.40;;;;;;;;;;5094808;28;20672;-49
2023/03/01 11:33:50;;;;;;;47.60;24.50;;;;;;;;;;5095261;28;20202;-46
2023/03/01 11:36:36;;;;;;;43.00;22.10;;;;;;;;;;5095269;28;20194;-47
2023/03/01 11:39:30;;;;;;;47.10;22.50;;;;;;;;;;5094994;28;20232;-47
2023/03/01 11:42:06;;;;;;;48.37;22.90;;;;;;;;;;5095336;28;20199;-46
2023/03/01 11:44:48;;;;;;;48.13;23.60;;;;;;;;;;5094500;28;20210;-48
2023/03/01 11:47:37;;;;;;;45.37;24.40;;;;;;;;;;5093924;28;20599;-46
2023/03/01 11:50:26;;;;;;;42.40;23.90;;;;;;;;;;5094689;28;20206;-48
2023/03/01 11:53:23;;;;;;;42.27;23.67;;;;;;;;;;5094087;28;20214;-48
2023/03/01 11:56:05;;;;;;;49.33;25.13;;;;;;;;;;5094932;28;20202;-47
2023/03/01 11:58:59;;;;;;;46.20;24.57;;;;;;;;;;5093753;28;20199;-54
2023/03/01 12:01:55;;;;;;;47.77;23.40;;;;;;;;;;5085088;28;20219;-55
2023/03/01 12:04:50;;;;;;;47.67;24.20;;;;;;;;;;5091789;28;20226;-47
2023/03/01 12:07:20;;;;;;;44.27;24.50;;;;;;;;;;5092649;28;20233;-47
2023/03/01 12:10:05;;;;;;;45.43;23.03;;;;;;;;;;5093120;28;20295;-48
2023/03/01 12:12:45;;;;;;;48.80;23.27;;;;;;;;;;5095671;28;20226;-48
2023/03/01 12:15:18;;;;;;;46.83;22.07;;;;;;;;;;5097275;28;20226;-48
2023/03/01 12:17:57;;;;;;;47.60;22.40;;;;;;;;;;5096894;28;20230;-47
2023/03/01 12:20:30;;;;;;;45.03;22.37;;;;;;;;;;5097518;28;20230;-47
2023/03/01 12:23:03;;;;;;;42.60;23.07;;;;;;;;;;5093675;28;20622;-46
2023/03/01 12:26:17;;;;;;;41.23;20.77;;;;;;;;;;5098293;28;20222;-47
2023/03/01 12:28:54;;;;;;;41.77;21.33;;;;;;;;;;5097432;28;20198;-46
2023/03/01 12:31:38;;;;;;;40.17;20.40;;;;;;;;;;5099085;28;20191;-47
2023/03/01 12:34:18;;;;;;;42.03;21.43;;;;;;;;;;5098063;28;20580;-47
2023/03/01 12:37:05;;;;;;;41.63;20.13;;;;;;;;;;5098378;28;20256;-47
2023/03/01 12:40:01;;;;;;;41.47;22.23;;;;;;;;;;5097047;28;20198;-48
2023/03/01 12:42:51;;;;;;;47.97;22.30;;;;;;;;;;5092889;28;20211;-54
2023/03/01 12:45:56;;;;;;;36.60;17.73;;;;;;;;;;5097821;28;20587;-47
2023/03/01 12:48:48;;;;;;;42.77;21.80;;;;;;;;;;5097366;28;20214;-48
2023/03/01 12:51:18;;;;;;;40.83;21.97;;;;;;;;;;5097859;28;20202;-47
2023/03/01 12:53:50;;;;;;;41.47;23.00;;;;;;;;;;5097243;28;20187;-47
2023/03/01 12:56:26;;;;;;;41.67;22.13;;;;;;;;;;5098177;28;20186;-47
2023/03/01 12:59:21;;;;;;;37.73;20.70;;;;;;;;;;5096595;28;20209;-47
2023/03/01 13:01:57;;;;;;;40.43;21.40;;;;;;;;;;5097684;28;20209;-47
2023/03/01 13:04:51;;;;;;;44.87;21.93;;;;;;;;;;5097726;28;20202;-47
2023/03/01 13:07:38;;;;;;;40.13;20.90;;;;;;;;;;5097668;28;20245;-47
2023/03/01 13:10:46;;;;;;;44.00;21.87;;;;;;;;;;5096561;28;20640;-47
2023/03/01 13:13:20;;;;;;;37.80;21.37;;;;;;;;;;5039195;28;20269;-48
2023/03/01 13:15:50;;;;;;;39.03;21.80;;;;;;;;;;5055146;28;20840;-47
2023/03/01 13:18:22;;;;;;;41.87;21.90;;;;;;;;;;5055278;28;20204;-49
2023/03/01 13:20:51;;;;;;;50.97;22.50;;;;;;;;;;5055567;28;20219;-47
2023/03/01 13:23:27;;;;;;;39.50;21.77;;;;;;;;;;5054280;28;20709;-47
2023/03/01 13:26:00;;;;;;;40.63;22.37;;;;;;;;;;5055198;28;20538;-49
2023/03/01 13:28:48;;;;;;;43.43;22.63;;;;;;;;;;5054906;28;20647;-50
2023/03/01 13:31:15;;;;;;;41.23;22.83;;;;;;;;;;5055356;28;20196;-48
2023/03/01 13:33:51;;;;;;;42.97;22.90;;;;;;;;;;5055011;28;20403;-49
2023/03/01 13:36:27;;;;;;;42.37;21.87;;;;;;;;;;5055180;28;20207;-52
2023/03/01 13:38:58;;;;;;;40.83;22.13;;;;;;;;;;5055021;28;20246;-49
2023/03/01 13:41:41;;;;;;;41.87;22.13;;;;;;;;;;5054910;28;20536;-50
2023/03/01 13:44:26;;;;;;;43.90;22.87;;;;;;;;;;5053423;28;20211;-47
2023/03/01 13:46:58;;;;;;;48.33;23.20;;;;;;;;;;5053081;28;20232;-47
2023/03/01 13:49:29;;;;;;;44.13;22.87;;;;;;;;;;5087396;28;20218;-47
2023/03/01 13:52:43;;;;;;;42.57;23.13;;;;;;;;;;5095806;28;20210;-50
2023/03/01 13:55:19;;;;;;;45.27;23.10;;;;;;;;;;5096491;28;20205;-49
2023/03/01 13:57:55;;;;;;;43.00;22.53;;;;;;;;;;5096065;28;20232;-46
2023/03/01 14:00:29;;;;;;;43.07;22.53;;;;;;;;;;5096695;28;20690;-50
2023/03/01 14:03:03;;;;;;;44.73;23.77;;;;;;;;;;5096590;28;20205;-48
2023/03/01 14:05:33;;;;;;;44.50;23.60;;;;;;;;;;5095449;28;20255;-46
2023/03/01 14:08:00;;;;;;;40.90;22.57;;;;;;;;;;5097085;28;20234;-48
2023/03/01 14:10:35;;;;;;;42.87;24.07;;;;;;;;;;5096492;28;20214;-48
2023/03/01 14:13:33;;;;;;;44.67;23.93;;;;;;;;;;5095518;28;20690;-47
2023/03/01 14:16:04;;;;;;;45.23;24.27;;;;;;;;;;5091846;28;20243;-52
2023/03/01 14:18:54;;;;;;;47.73;25.17;;;;;;;;;;5081573;28;20242;-50
2023/03/01 14:21:22;;;;;;;46.47;24.03;;;;;;;;;;5079104;28;20219;-51
2023/03/01 14:23:49;;;;;;;45.03;23.33;;;;;;;;;;5090395;28;20226;-51
2023/03/01 14:26:21;;;;;;;46.33;25.23;;;;;;;;;;5079696;28;20239;-48
2023/03/01 14:28:49;;;;;;;45.03;24.60;;;;;;;;;;5091811;28;20536;-53
2023/03/01 14:31:37;;;;;;;49.40;24.20;;;;;;;;;;5087114;28;20224;-50
2023/03/01 14:34:23;;;;;;;47.50;24.13;;;;;;;;;;5105462;28;20217;-52
2023/03/01 14:36:51;;;;;;;43.37;23.87;;;;;;;;;;5098703;28;20234;-47
2023/03/01 14:39:27;;;;;;;50.40;24.83;;;;;;;;;;5086743;28;20639;-51
2023/03/01 14:41:54;;;;;;;45.63;24.30;;;;;;;;;;5075072;28;20226;-54
2023/03/01 14:44:24;;;;;;;62.37;27.83;;;;;;;;;;5077813;28;20273;-53
2023/03/01 14:46:56;;;;;;;44.67;25.03;;;;;;;;;;5074108;28;20256;-60